Time;durP1;ratioP1;P1;durP2;ratioP2;P2;SDS_P1;SDS_P2;PMS_P1;PMS_P2;Temp;Humidity;BMP_temperature;BMP_pressure;BME280_temperature;BME280_humidity;BME280_pressure;Samples;Min_cycle;Max_cycle;Signal;HPM_P1;HPM_P2
2023/07/03 00:00:15;;;;;;;17.10;10.03;;;;;;;18.10;58.70;97827.84;5070649;28;20211;-77
2023/07/03 00:02:44;;;;;;;15.47;9.87;;;;;;;18.08;58.86;97827.19;5071066;28;20316;-78
2023/07/03 00:05:11;;;;;;;19.03;9.90;;;;;;;18.10;58.71;97827.03;5070692;28;20239;-77
2023/07/03 00:07:38;;;;;;;14.30;8.87;;;;;;;18.11;58.72;97826.03;5070679;28;20281;-78
2023/07/03 00:10:05;;;;;;;17.00;9.27;;;;;;;18.14;58.49;97826.53;5070435;28;20203;-77
2023/07/03 00:12:32;;;;;;;17.33;10.67;;;;;;;18.16;59.13;97831.75;5070986;28;20211;-78
2023/07/03 00:14:59;;;;;;;16.30;9.47;;;;;;;18.12;59.58;97836.56;5070609;28;20258;-79
2023/07/03 00:17:25;;;;;;;15.63;9.57;;;;;;;18.11;60.08;97840.22;5070571;28;20227;-78
2023/07/03 00:19:53;;;;;;;14.07;9.00;;;;;;;18.08;60.68;97835.19;5070321;28;20207;-78
2023/07/03 00:22:20;;;;;;;15.43;9.43;;;;;;;18.05;60.98;97840.84;5070547;28;20211;-78
2023/07/03 00:24:47;;;;;;;14.30;8.97;;;;;;;18.03;60.79;97834.84;5070652;28;20231;-78
2023/07/03 00:27:13;;;;;;;14.30;9.50;;;;;;;18.02;60.70;97835.84;5070760;28;20204;-78
2023/07/03 00:29:40;;;;;;;19.40;10.20;;;;;;;18.04;60.87;97838.38;5070391;28;20593;-78
2023/07/03 00:32:08;;;;;;;16.20;9.50;;;;;;;17.98;61.46;97850.50;5070671;28;20261;-78
2023/07/03 00:34:34;;;;;;;15.13;9.53;;;;;;;17.93;61.92;97842.13;5070475;28;20227;-78
2023/07/03 00:37:02;;;;;;;15.97;9.43;;;;;;;17.93;61.89;97841.31;5070453;28;20228;-78
2023/07/03 00:39:28;;;;;;;14.40;9.37;;;;;;;17.88;62.46;97840.94;5070309;28;20214;-78
2023/07/03 00:41:55;;;;;;;13.90;9.03;;;;;;;17.83;63.13;97851.25;5070590;28;20203;-78
2023/07/03 00:44:21;;;;;;;16.83;9.50;;;;;;;17.83;63.31;97846.75;5071776;28;20204;-78
2023/07/03 00:46:50;;;;;;;14.37;8.33;;;;;;;17.86;62.74;97846.44;5074436;28;20209;-78
2023/07/03 00:49:18;;;;;;;13.30;9.57;;;;;;;17.85;63.00;97839.41;5073890;28;20211;-78
2023/07/03 00:51:47;;;;;;;16.30;10.27;;;;;;;17.84;62.79;97839.56;5074335;28;20582;-78
2023/07/03 00:54:15;;;;;;;14.97;9.30;;;;;;;17.78;63.22;97843.72;5074242;28;20215;-78
2023/07/03 00:56:41;;;;;;;14.70;9.17;;;;;;;17.74;63.43;97847.69;5074255;28;20227;-78
2023/07/03 00:59:08;;;;;;;16.40;9.30;;;;;;;17.77;63.57;97841.19;5072945;28;20704;-78
2023/07/03 01:01:43;;;;;;;15.20;9.40;;;;;;;17.79;63.38;97845.38;5073534;28;20212;-78
2023/07/03 01:04:12;;;;;;;17.13;9.40;;;;;;;17.77;63.12;97836.69;5074068;28;20207;-78
2023/07/03 01:06:45;;;;;;;15.30;8.83;;;;;;;17.76;63.00;97840.38;5073717;28;20211;-78
2023/07/03 01:09:13;;;;;;;14.50;9.23;;;;;;;17.75;62.78;97849.38;5073662;28;20242;-78
2023/07/03 01:11:43;;;;;;;19.17;9.67;;;;;;;17.77;63.22;97839.38;5073897;28;20264;-77
2023/07/03 01:14:11;;;;;;;16.40;9.70;;;;;;;17.83;62.71;97838.75;5073591;28;20211;-78
2023/07/03 01:16:38;;;;;;;14.53;8.93;;;;;;;17.84;62.73;97831.53;5073554;28;20232;-78
2023/07/03 01:19:09;;;;;;;16.03;9.13;;;;;;;17.87;62.47;97826.72;5073925;28;20257;-78
2023/07/03 01:21:44;;;;;;;17.17;9.57;;;;;;;17.92;62.24;97828.94;5073776;28;20212;-79
2023/07/03 01:24:13;;;;;;;14.83;9.70;;;;;;;17.90;61.57;97823.75;5073535;28;20634;-78
2023/07/03 01:26:44;;;;;;;15.07;9.43;;;;;;;17.94;61.37;97822.44;5073472;28;20222;-77
2023/07/03 01:29:12;;;;;;;17.83;9.97;;;;;;;17.98;60.89;97826.44;5073534;28;20222;-78
2023/07/03 01:31:40;;;;;;;15.37;9.27;;;;;;;18.02;60.51;97829.63;5073558;28;20248;-79
2023/07/03 01:34:09;;;;;;;16.20;9.13;;;;;;;17.97;61.10;97822.09;5073463;28;20210;-78
2023/07/03 01:36:37;;;;;;;15.63;9.27;;;;;;;17.96;61.38;97831.13;5073247;28;20235;-78
2023/07/03 01:39:04;;;;;;;19.67;9.30;;;;;;;17.98;60.84;97823.78;5073221;28;20203;-78
2023/07/03 01:41:31;;;;;;;15.80;9.50;;;;;;;17.99;60.88;97821.94;5073120;28;20720;-76
2023/07/03 01:43:59;;;;;;;17.80;9.60;;;;;;;17.98;61.38;97822.97;5073218;28;20704;-78
2023/07/03 01:46:26;;;;;;;15.40;9.13;;;;;;;17.91;61.60;97833.44;5073152;28;20726;-79
2023/07/03 01:48:52;;;;;;;17.07;9.83;;;;;;;17.92;61.75;97828.94;5073252;28;20234;-79
2023/07/03 01:51:26;;;;;;;15.13;9.73;;;;;;;17.93;61.75;97825.25;5073073;28;20219;-79
2023/07/03 01:53:57;;;;;;;15.77;9.47;;;;;;;17.95;61.42;97818.75;5073047;28;20207;-79
2023/07/03 01:56:29;;;;;;;15.93;9.73;;;;;;;17.85;61.91;97820.69;5072779;28;20254;-79
2023/07/03 01:59:06;;;;;;;15.60;9.40;;;;;;;17.84;62.23;97816.34;5073319;28;20203;-79
2023/07/03 02:01:42;;;;;;;14.57;8.53;;;;;;;17.81;62.34;97811.31;5072700;28;20207;-77
2023/07/03 02:04:14;;;;;;;16.00;9.10;;;;;;;17.82;62.55;97817.50;5072601;28;20264;-78
2023/07/03 02:06:44;;;;;;;14.27;9.20;;;;;;;17.80;62.88;97823.00;5073095;28;20211;-78
2023/07/03 02:09:12;;;;;;;14.83;9.27;;;;;;;17.87;62.86;97815.19;5072533;28;20207;-78
2023/07/03 02:11:39;;;;;;;15.47;9.57;;;;;;;17.90;62.30;97810.38;5072843;28;20207;-78
2023/07/03 02:14:08;;;;;;;17.30;10.63;;;;;;;17.90;61.99;97814.88;5072749;28;20214;-78
2023/07/03 02:16:35;;;;;;;16.80;9.30;;;;;;;17.90;61.69;97814.88;5072545;28;20665;-77
2023/07/03 02:19:01;;;;;;;15.77;8.80;;;;;;;17.89;61.53;97814.06;5072803;28;20207;-77
2023/07/03 02:21:28;;;;;;;16.13;10.00;;;;;;;17.96;61.67;97815.09;5072357;28;20233;-78
2023/07/03 02:23:55;;;;;;;18.37;9.50;;;;;;;17.92;61.96;97819.06;5072413;28;20207;-78
2023/07/03 02:26:21;;;;;;;15.80;9.20;;;;;;;17.93;62.54;97814.56;5072305;28;20599;-78
2023/07/03 02:28:48;;;;;;;13.87;8.90;;;;;;;17.97;62.17;97816.75;5072334;28;20214;-77
2023/07/03 02:31:16;;;;;;;14.37;8.70;;;;;;;17.94;62.18;97822.44;5072083;28;20212;-77
2023/07/03 02:33:42;;;;;;;15.73;9.30;;;;;;;17.91;62.55;97822.75;5072427;28;20218;-79
2023/07/03 02:36:09;;;;;;;13.90;8.57;;;;;;;17.92;62.45;97821.75;5072143;28;20618;-79
2023/07/03 02:38:35;;;;;;;15.60;9.03;;;;;;;17.93;62.48;97819.91;5072139;28;20211;-79
2023/07/03 02:41:02;;;;;;;15.57;9.33;;;;;;;17.96;62.39;97825.78;5071818;28;20302;-79
2023/07/03 02:43:30;;;;;;;12.70;8.63;;;;;;;17.98;62.15;97815.75;5072466;28;20204;-78
2023/07/03 02:46:02;;;;;;;17.10;8.37;;;;;;;18.00;62.80;97821.81;5071882;28;20227;-78
2023/07/03 02:48:30;;;;;;;16.27;9.13;;;;;;;17.99;63.30;97824.63;5071971;28;20210;-78
2023/07/03 02:50:57;;;;;;;14.93;8.43;;;;;;;17.96;63.97;97820.44;5071438;28;20211;-78
2023/07/03 02:53:23;;;;;;;15.83;8.77;;;;;;;17.96;63.49;97815.09;5071813;28;20203;-78
2023/07/03 02:55:50;;;;;;;13.97;8.83;;;;;;;18.00;62.93;97808.44;5071846;28;20231;-79
2023/07/03 02:58:18;;;;;;;16.07;9.30;;;;;;;18.00;62.97;97810.25;5071534;28;20234;-78
2023/07/03 03:00:46;;;;;;;13.60;8.80;;;;;;;18.03;62.58;97808.09;5071543;28;20219;-78
2023/07/03 03:03:13;;;;;;;15.63;8.63;;;;;;;18.06;61.92;97805.13;5071848;28;20218;-79
2023/07/03 03:05:41;;;;;;;13.00;8.50;;;;;;;18.05;62.49;97815.97;5095433;22;20240;-78
2023/07/03 03:08:08;;;;;;;15.87;9.03;;;;;;;18.05;63.02;97807.94;5091029;28;20205;-78
2023/07/03 03:10:34;;;;;;;16.47;9.57;;;;;;;18.01;63.76;97818.13;5091495;28;20258;-78
2023/07/03 03:13:01;;;;;;;13.50;8.40;;;;;;;18.03;63.86;97810.78;5091591;28;20210;-78
2023/07/03 03:15:28;;;;;;;14.80;9.00;;;;;;;18.03;63.94;97809.91;5091928;28;20233;-78
2023/07/03 03:17:54;;;;;;;13.90;8.90;;;;;;;18.01;63.82;97815.44;5091613;28;20226;-78
2023/07/03 03:20:20;;;;;;;15.00;8.93;;;;;;;18.08;63.26;97813.81;5091164;28;20692;-78
2023/07/03 03:22:48;;;;;;;17.43;9.30;;;;;;;18.03;63.22;97809.91;5091791;28;20211;-78
2023/07/03 03:25:15;;;;;;;16.83;8.90;;;;;;;18.00;63.32;97805.75;5091235;28;20230;-78
2023/07/03 03:27:41;;;;;;;16.47;9.77;;;;;;;18.08;62.75;97803.09;5091601;28;20215;-78
2023/07/03 03:30:09;;;;;;;14.67;9.20;;;;;;;18.09;62.84;97806.59;5091386;28;20217;-78
2023/07/03 03:32:36;;;;;;;13.20;8.60;;;;;;;18.08;62.91;97797.75;5091557;28;20218;-78
2023/07/03 03:35:02;;;;;;;15.97;9.17;;;;;;;18.09;63.20;97804.78;5091687;28;20247;-78
2023/07/03 03:37:29;;;;;;;17.00;9.50;;;;;;;18.10;62.93;97793.06;5091372;28;20249;-78
2023/07/03 03:39:57;;;;;;;16.63;9.10;;;;;;;18.09;62.93;97804.78;5091050;28;20206;-78
2023/07/03 03:42:23;;;;;;;15.17;8.97;;;;;;;18.08;63.01;97800.44;5091128;28;20207;-78
2023/07/03 03:44:49;;;;;;;14.80;9.03;;;;;;;18.08;62.51;97803.09;5091148;28;20245;-79
2023/07/03 03:47:16;;;;;;;15.20;9.07;;;;;;;18.07;62.61;97796.09;5091210;28;20210;-78
2023/07/03 03:49:42;;;;;;;17.57;9.57;;;;;;;18.04;63.22;97799.06;5091053;28;20210;-78
2023/07/03 03:52:09;;;;;;;17.63;9.67;;;;;;;18.09;62.52;97802.09;5091124;28;20213;-78
2023/07/03 03:54:35;;;;;;;15.73;9.20;;;;;;;18.12;62.70;97808.97;5090885;28;20215;-78
2023/07/03 03:57:04;;;;;;;17.53;8.90;;;;;;;18.09;62.94;97815.47;5091177;28;20237;-78
2023/07/03 03:59:30;;;;;;;14.23;8.83;;;;;;;18.15;62.55;97801.47;5091122;28;20599;-78
2023/07/03 04:01:57;;;;;;;14.00;8.63;;;;;;;18.22;62.43;97804.34;5091097;28;20203;-78
2023/07/03 04:04:23;;;;;;;14.50;8.93;;;;;;;18.18;62.37;97806.50;5091036;28;20229;-78
2023/07/03 04:06:52;;;;;;;14.20;8.23;;;;;;;18.14;62.86;97807.81;5090730;28;20234;-78
2023/07/03 04:09:18;;;;;;;15.63;8.87;;;;;;;18.10;63.36;97806.44;5090522;28;20203;-78
2023/07/03 04:11:45;;;;;;;12.10;8.23;;;;;;;18.12;63.48;97820.53;5091167;28;20206;-78
2023/07/03 04:14:15;;;;;;;18.10;9.10;;;;;;;18.21;62.80;97814.19;5091265;28;20202;-78
2023/07/03 04:16:41;;;;;;;13.60;9.03;;;;;;;18.24;62.75;97819.22;5090787;28;20643;-78
2023/07/03 04:19:08;;;;;;;18.60;9.07;;;;;;;18.21;62.75;97814.19;5093294;28;20213;-78
2023/07/03 04:21:34;;;;;;;13.90;8.90;;;;;;;18.20;63.22;97812.53;5095124;28;20242;-78
2023/07/03 04:24:01;;;;;;;14.73;9.10;;;;;;;18.23;62.70;97817.53;5094698;28;20218;-78
2023/07/03 04:26:27;;;;;;;16.73;9.13;;;;;;;18.27;62.74;97813.56;5094988;28;20231;-78
2023/07/03 04:28:54;;;;;;;14.53;9.17;;;;;;;18.26;62.60;97811.88;5094947;28;20203;-78
2023/07/03 04:31:21;;;;;;;17.20;8.90;;;;;;;18.28;62.66;97814.41;5094628;28;20215;-78
2023/07/03 04:33:48;;;;;;;13.67;8.73;;;;;;;18.29;62.78;97822.25;5094959;28;20210;-78
2023/07/03 04:36:17;;;;;;;15.80;8.87;;;;;;;18.34;62.73;97819.97;5094953;28;20233;-78
2023/07/03 04:38:43;;;;;;;16.37;8.83;;;;;;;18.36;62.81;97819.81;5094916;28;20234;-77
2023/07/03 04:41:10;;;;;;;17.03;9.30;;;;;;;18.40;62.52;97826.53;5094573;28;20298;-77
2023/07/03 04:43:44;;;;;;;13.83;8.30;;;;;;;18.41;62.48;97831.69;5094769;28;20214;-77
2023/07/03 04:46:13;;;;;;;14.07;8.83;;;;;;;18.41;62.70;97831.69;5094513;28;20317;-78
2023/07/03 04:48:40;;;;;;;14.00;8.97;;;;;;;18.39;62.90;97839.06;5094630;28;20558;-78
2023/07/03 04:51:08;;;;;;;12.93;8.50;;;;;;;18.40;63.42;97840.72;5094284;28;20203;-77
2023/07/03 04:53:41;;;;;;;15.53;9.10;;;;;;;18.46;63.17;97839.25;5094527;28;20294;-77
2023/07/03 04:56:09;;;;;;;13.27;7.97;;;;;;;18.44;62.97;97836.72;5094467;28;20226;-75
2023/07/03 04:58:35;;;;;;;13.50;8.37;;;;;;;18.47;62.86;97836.41;5094158;28;20226;-75
2023/07/03 05:01:04;;;;;;;13.83;8.33;;;;;;;18.52;62.26;97834.06;5093949;28;20211;-75
2023/07/03 05:03:31;;;;;;;13.07;8.17;;;;;;;18.57;62.21;97842.47;5093973;28;20310;-75
2023/07/03 05:05:59;;;;;;;14.27;8.50;;;;;;;18.59;62.40;97850.34;5094099;28;20287;-75
2023/07/03 05:08:26;;;;;;;15.17;8.13;;;;;;;18.62;62.43;97850.84;5094044;28;20210;-75
2023/07/03 05:10:52;;;;;;;12.83;7.93;;;;;;;18.65;62.31;97853.19;5093872;28;20293;-76
2023/07/03 05:13:19;;;;;;;15.17;8.60;;;;;;;18.67;63.04;97856.56;5094314;28;20684;-77
2023/07/03 05:15:45;;;;;;;17.37;8.23;;;;;;;18.70;63.24;97850.88;5093881;28;20227;-75
2023/07/03 05:18:12;;;;;;;10.60;7.40;;;;;;;18.75;63.05;97856.56;5093890;28;20231;-76
2023/07/03 05:20:38;;;;;;;14.17;8.87;;;;;;;18.77;63.53;97859.91;5093868;28;20221;-76
2023/07/03 05:23:06;;;;;;;13.60;7.30;;;;;;;18.82;63.70;97862.94;5093838;28;20207;-76
2023/07/03 05:25:32;;;;;;;14.60;8.30;;;;;;;18.88;63.36;97873.00;5093969;28;20231;-76
2023/07/03 05:27:59;;;;;;;12.27;7.77;;;;;;;18.93;63.52;97861.78;5093704;28;20203;-76
2023/07/03 05:30:25;;;;;;;12.60;8.33;;;;;;;18.96;63.38;97870.34;5092452;28;20296;-81
2023/07/03 05:32:52;;;;;;;12.70;8.03;;;;;;;19.05;63.05;97864.00;5093729;28;20211;-78
2023/07/03 05:35:18;;;;;;;11.10;7.23;;;;;;;19.08;62.91;97868.19;5093390;28;20250;-77
2023/07/03 05:37:45;;;;;;;13.77;7.87;;;;;;;19.19;62.54;97870.56;5093874;28;20226;-76
2023/07/03 05:40:15;;;;;;;11.23;7.40;;;;;;;19.22;62.07;97871.09;5093074;28;20214;-76
2023/07/03 05:42:41;;;;;;;12.20;8.30;;;;;;;19.24;61.56;97869.09;5093282;28;20242;-76
2023/07/03 05:45:09;;;;;;;12.73;8.10;;;;;;;19.37;61.15;97869.44;5093152;28;20623;-76
2023/07/03 05:47:36;;;;;;;12.73;7.80;;;;;;;19.45;60.18;97861.38;5093496;28;20210;-76
2023/07/03 05:50:02;;;;;;;14.27;8.03;;;;;;;19.54;59.78;97855.03;5093070;28;20210;-76
2023/07/03 05:52:29;;;;;;;11.77;7.57;;;;;;;19.69;60.32;97864.06;5093405;28;20210;-75
2023/07/03 05:54:55;;;;;;;13.20;8.27;;;;;;;19.88;59.13;97866.38;5093251;28;20234;-77
2023/07/03 05:57:23;;;;;;;11.57;7.13;;;;;;;20.02;59.26;97863.00;5093144;28;20206;-77
2023/07/03 05:59:50;;;;;;;14.07;8.50;;;;;;;20.12;59.56;97868.22;5093064;28;20215;-76
2023/07/03 06:02:17;;;;;;;13.00;8.10;;;;;;;20.26;59.70;97868.34;5093318;28;20236;-78
2023/07/03 06:04:44;;;;;;;10.07;7.37;;;;;;;20.37;58.84;97864.47;5093037;28;20221;-76
2023/07/03 06:07:11;;;;;;;11.77;7.90;;;;;;;20.49;58.00;97858.50;5093112;28;20587;-76
2023/07/03 06:09:38;;;;;;;13.00;8.30;;;;;;;20.59;57.30;97869.03;5092695;28;20600;-78
2023/07/03 06:12:06;;;;;;;13.40;7.60;;;;;;;20.61;56.90;97857.13;5091410;28;20203;-76
2023/07/03 06:14:33;;;;;;;13.80;8.57;;;;;;;20.68;56.64;97852.75;5091580;28;20441;-77
2023/07/03 06:17:00;;;;;;;12.67;7.77;;;;;;;20.98;56.81;97861.84;5092814;28;20471;-77
2023/07/03 06:19:28;;;;;;;14.53;7.53;;;;;;;21.17;55.17;97858.69;5091006;28;20253;-77
2023/07/03 06:21:55;;;;;;;12.57;7.63;;;;;;;21.22;55.79;97867.88;5093352;28;20229;-86
2023/07/03 06:24:22;;;;;;;12.27;7.77;;;;;;;21.24;55.47;97860.50;5092940;28;20206;-83
2023/07/03 06:26:50;;;;;;;11.20;7.67;;;;;;;21.24;55.41;97870.41;5092794;28;20231;-81
2023/07/03 06:29:17;;;;;;;13.33;7.43;;;;;;;21.12;53.38;97859.22;5093497;28;20297;-84
2023/07/03 06:31:45;;;;;;;14.43;8.27;;;;;;;21.15;53.71;97856.19;5092874;28;20707;-85
2023/07/03 06:34:11;;;;;;;11.07;7.47;;;;;;;21.27;53.57;97870.88;5093999;28;20210;-86
2023/07/03 06:36:38;;;;;;;10.73;6.97;;;;;;;21.45;54.10;97868.72;5095119;28;20231;-86
2023/07/03 06:39:05;;;;;;;10.67;7.27;;;;;;;21.50;54.12;97871.72;5095163;28;20712;-88
2023/07/03 06:41:34;;;;;;;13.90;7.47;;;;;;;21.50;53.70;97871.72;5093208;28;20199;-86
2023/07/03 06:44:02;;;;;;;15.00;7.37;;;;;;;21.44;52.41;97861.69;5092830;28;20243;-88
2023/07/03 06:46:28;;;;;;;12.83;7.53;;;;;;;21.49;52.58;97870.06;5093083;28;20234;-87
2023/07/03 06:48:57;;;;;;;13.73;7.20;;;;;;;21.49;52.10;97875.44;5092802;28;20217;-87
2023/07/03 06:51:24;;;;;;;12.73;7.80;;;;;;;21.58;52.70;97882.41;5092257;28;20213;-87
2023/07/03 06:53:51;;;;;;;9.90;6.93;;;;;;;21.59;51.85;97873.31;5092358;28;20211;-87
2023/07/03 06:56:19;;;;;;;13.10;7.90;;;;;;;21.52;51.89;97875.06;5092413;28;20579;-87
2023/07/03 06:58:47;;;;;;;15.20;7.57;;;;;;;21.58;51.89;97874.34;5092151;28;20230;-86
2023/07/03 07:01:14;;;;;;;14.30;7.43;;;;;;;21.80;51.42;97878.91;5091802;28;20653;-87
2023/07/03 07:03:41;;;;;;;12.90;7.30;;;;;;;21.92;51.26;97880.13;5092072;28;20289;-87
2023/07/03 07:06:11;;;;;;;11.57;7.50;;;;;;;21.88;50.25;97876.13;5091828;28;20241;-87
2023/07/03 07:08:38;;;;;;;12.17;6.90;;;;;;;21.80;50.54;97884.28;5091713;28;20194;-87
2023/07/03 07:11:09;;;;;;;11.63;7.67;;;;;;;21.69;52.18;97889.25;5091649;28;20207;-87
2023/07/03 07:13:36;;;;;;;11.43;7.47;;;;;;;21.58;51.89;97879.72;5091701;28;20260;-87
2023/07/03 07:16:03;;;;;;;14.13;7.87;;;;;;;21.46;51.41;97885.72;5091629;28;20230;-87
2023/07/03 07:18:29;;;;;;;14.07;7.20;;;;;;;21.23;52.53;97890.25;5091523;28;20231;-87
2023/07/03 07:20:56;;;;;;;13.33;8.00;;;;;;;21.13;52.75;97895.84;5091410;28;20217;-86
2023/07/03 07:23:23;;;;;;;13.57;7.67;;;;;;;21.03;53.59;97889.84;5091596;28;20203;-87
2023/07/03 07:25:53;;;;;;;13.60;7.53;;;;;;;20.97;54.40;97903.97;5091869;28;20297;-87
2023/07/03 07:28:20;;;;;;;14.20;7.90;;;;;;;21.04;54.37;97893.38;5091588;28;20245;-87
2023/07/03 07:30:46;;;;;;;15.47;7.53;;;;;;;20.89;54.59;97898.66;5091612;28;20267;-87
2023/07/03 07:33:13;;;;;;;13.07;7.40;;;;;;;20.70;55.49;97907.13;5091476;28;20207;-87
2023/07/03 07:35:39;;;;;;;13.77;7.30;;;;;;;20.65;56.67;97916.69;5091314;28;20234;-87
2023/07/03 07:38:06;;;;;;;15.73;7.47;;;;;;;20.58;56.49;97915.72;5091543;28;20237;-87
2023/07/03 07:40:34;;;;;;;12.83;7.10;;;;;;;20.62;57.07;97917.91;5091569;28;20215;-87
2023/07/03 07:43:01;;;;;;;12.17;7.90;;;;;;;20.71;56.11;97908.78;5090880;28;20211;-87
2023/07/03 07:45:27;;;;;;;13.43;7.63;;;;;;;20.74;56.88;97905.75;5088398;28;20735;-87
2023/07/03 07:47:54;;;;;;;12.83;7.40;;;;;;;20.83;56.64;97914.59;5088454;28;20230;-86
2023/07/03 07:50:20;;;;;;;13.27;7.00;;;;;;;20.94;56.62;97912.41;5087797;28;20206;-85
2023/07/03 07:52:47;;;;;;;10.87;7.10;;;;;;;20.93;55.80;97916.13;5089757;28;20244;-87
2023/07/03 07:55:13;;;;;;;12.60;7.67;;;;;;;21.02;55.51;97915.03;5090908;28;20226;-87
2023/07/03 07:57:42;;;;;;;11.23;7.80;;;;;;;21.15;55.28;97923.38;5090745;28;20202;-86
2023/07/03 08:00:09;;;;;;;16.03;8.43;;;;;;;21.14;55.71;97920.84;5090750;28;20226;-86
2023/07/03 08:02:37;;;;;;;16.03;8.00;;;;;;;21.18;55.95;97925.72;5090946;28;20244;-82
2023/07/03 08:05:04;;;;;;;11.47;7.37;;;;;;;21.37;55.93;97930.63;5093080;28;20237;-83
2023/07/03 08:07:31;;;;;;;15.43;8.53;;;;;;;21.43;54.73;97918.31;5094006;28;20199;-86
2023/07/03 08:09:58;;;;;;;16.80;8.20;;;;;;;21.57;54.89;97921.06;5092257;28;20214;-83
2023/07/03 08:12:25;;;;;;;12.60;7.53;;;;;;;21.78;54.68;97918.59;5090945;28;20623;-84
2023/07/03 08:14:52;;;;;;;16.13;7.90;;;;;;;21.80;54.21;97913.88;5090824;28;20226;-83
2023/07/03 08:17:19;;;;;;;14.77;8.27;;;;;;;21.52;54.78;97923.47;5090713;28;20211;-83
2023/07/03 08:19:46;;;;;;;14.00;7.90;;;;;;;21.43;55.59;97919.16;5090791;28;20234;-83
2023/07/03 08:22:12;;;;;;;11.87;7.33;;;;;;;21.42;55.59;97922.88;5090918;28;20207;-83
2023/07/03 08:24:39;;;;;;;14.20;7.97;;;;;;;21.36;55.80;97931.66;5090653;28;20233;-83
2023/07/03 08:27:06;;;;;;;13.43;7.80;;;;;;;21.09;55.48;97931.31;5090783;28;20214;-83
2023/07/03 08:29:32;;;;;;;17.07;8.43;;;;;;;20.94;56.09;97933.91;5090448;28;20213;-83
2023/07/03 08:32:00;;;;;;;16.40;7.47;;;;;;;20.91;55.58;97939.63;5090674;28;20206;-83
2023/07/03 08:34:27;;;;;;;13.23;6.90;;;;;;;21.00;54.94;97922.47;5090953;28;20203;-83
2023/07/03 08:36:53;;;;;;;13.37;6.90;;;;;;;21.06;54.22;97924.44;5090490;28;20227;-83
2023/07/03 08:39:20;;;;;;;12.90;7.23;;;;;;;21.21;53.57;97925.34;5090240;28;20229;-83
2023/07/03 08:42:03;;;;;;;15.83;7.60;;;;;;;21.33;53.64;97928.50;5090620;28;20619;-83
2023/07/03 08:44:30;;;;;;;10.87;6.50;;;;;;;21.40;53.45;97932.97;5091028;28;20191;-83
2023/07/03 08:46:59;;;;;;;11.83;6.57;;;;;;;21.62;52.84;97924.06;5090621;28;20223;-82
2023/07/03 08:49:28;;;;;;;15.97;7.13;;;;;;;21.68;52.90;97922.53;5090324;28;20225;-83
2023/07/03 08:51:59;;;;;;;14.23;7.30;;;;;;;21.63;52.25;97920.34;5090612;28;20753;-83
2023/07/03 08:54:31;;;;;;;11.83;6.73;;;;;;;21.66;52.99;97925.41;5089997;28;20242;-83
2023/07/03 08:56:58;;;;;;;12.20;6.53;;;;;;;21.62;53.14;97924.06;5090505;28;20226;-83
2023/07/03 08:59:24;;;;;;;12.73;6.73;;;;;;;21.86;52.98;97931.13;5087865;28;20638;-83
2023/07/03 09:01:57;;;;;;;10.43;6.90;;;;;;;22.11;52.11;97922.66;5087687;28;20214;-83
2023/07/03 09:04:44;;;;;;;14.93;7.47;;;;;;;22.34;51.94;97911.84;5087958;28;20215;-83
2023/07/03 09:07:14;;;;;;;11.97;6.60;;;;;;;22.26;50.75;97910.06;5108779;22;20250;-79
2023/07/03 09:09:47;;;;;;;11.80;6.23;;;;;;;22.27;51.15;97914.44;5093867;28;20205;-79
2023/07/03 09:12:20;;;;;;;12.43;6.87;;;;;;;22.31;50.82;97904.97;5094291;28;20218;-79
2023/07/03 09:14:51;;;;;;;10.93;6.00;;;;;;;22.44;50.18;97904.34;5094433;28;20286;-79
2023/07/03 09:17:19;;;;;;;13.60;6.70;;;;;;;22.63;50.08;97910.03;5093894;28;20231;-79
2023/07/03 09:19:50;;;;;;;9.53;6.17;;;;;;;22.77;49.94;97911.88;5093787;28;20227;-79
2023/07/03 09:22:25;;;;;;;12.10;6.87;;;;;;;23.03;47.79;97896.03;5094296;28;20584;-79
2023/07/03 09:24:55;;;;;;;12.30;6.53;;;;;;;23.00;48.23;97904.50;5094289;28;20257;-79
2023/07/03 09:27:25;;;;;;;10.70;6.43;;;;;;;23.01;48.05;97898.09;5094289;28;20280;-79
2023/07/03 09:29:53;;;;;;;10.83;6.87;;;;;;;23.05;48.06;97898.53;5093741;28;20207;-78
2023/07/03 09:32:27;;;;;;;11.77;5.90;;;;;;;23.07;47.41;97889.25;5093864;28;20203;-79
2023/07/03 09:35:08;;;;;;;11.70;5.97;;;;;;;23.03;47.25;97900.59;5094205;28;20297;-79
2023/07/03 09:37:37;;;;;;;10.97;5.67;;;;;;;22.63;47.50;97898.41;5093962;28;20226;-79
2023/07/03 09:40:08;;;;;;;11.77;6.07;;;;;;;22.44;48.53;97902.47;5093502;28;20226;-79
2023/07/03 09:42:35;;;;;;;11.63;5.80;;;;;;;22.50;48.59;97900.94;5093771;28;20267;-78
2023/07/03 09:45:03;;;;;;;12.37;6.10;;;;;;;22.73;48.18;97915.13;5093693;28;20233;-79
2023/07/03 09:47:30;;;;;;;12.07;5.83;;;;;;;22.76;47.01;97899.44;5093764;28;20227;-79
2023/07/03 09:50:05;;;;;;;9.50;5.60;;;;;;;22.98;46.75;97901.16;5093548;28;20206;-79
2023/07/03 09:52:32;;;;;;;11.37;5.83;;;;;;;23.18;46.29;97887.94;5093485;28;20206;-79
2023/07/03 09:55:03;;;;;;;10.30;6.03;;;;;;;23.35;46.82;97889.38;5093540;28;20214;-79
2023/07/03 09:57:30;;;;;;;11.13;4.87;;;;;;;23.52;44.57;97880.00;5093264;28;20272;-79
2023/07/03 10:00:12;;;;;;;9.93;5.00;;;;;;;23.63;44.45;97882.16;5093189;28;20238;-79
2023/07/03 10:02:39;;;;;;;7.20;4.53;;;;;;;23.60;43.35;97871.78;5093440;28;20209;-79
2023/07/03 10:05:07;;;;;;;8.87;5.23;;;;;;;23.70;42.54;97861.47;5093451;28;20272;-79
2023/07/03 10:07:40;;;;;;;7.27;4.67;;;;;;;23.85;42.31;97868.50;5092998;28;20231;-77
2023/07/03 10:10:10;;;;;;;6.93;4.00;;;;;;;24.02;41.91;97867.19;5093148;28;20217;-78
2023/07/03 10:12:40;;;;;;;5.90;4.30;;;;;;;24.35;41.46;97860.16;5093312;28;20206;-79
2023/07/03 10:15:11;;;;;;;8.07;4.40;;;;;;;24.47;40.20;97857.72;5093421;28;20207;-78
2023/07/03 10:17:42;;;;;;;10.30;4.23;;;;;;;24.28;41.24;97856.59;5092780;28;20207;-78
2023/07/03 10:20:26;;;;;;;6.90;4.20;;;;;;;24.09;40.90;97868.06;5092936;28;20347;-79
2023/07/03 10:22:54;;;;;;;7.83;4.07;;;;;;;24.05;41.29;97877.59;5093330;28;20207;-77
2023/07/03 10:25:27;;;;;;;5.57;3.90;;;;;;;24.14;41.56;97865.59;5093123;28;20214;-79
2023/07/03 10:27:57;;;;;;;5.67;3.57;;;;;;;24.28;41.94;97872.78;5092990;28;20205;-78
2023/07/03 10:30:25;;;;;;;10.07;4.60;;;;;;;24.23;42.06;97874.41;5092631;28;20276;-78
2023/07/03 10:32:56;;;;;;;6.73;3.80;;;;;;;23.93;41.47;97876.47;5092609;28;20699;-78
2023/07/03 10:35:28;;;;;;;6.57;3.57;;;;;;;23.97;42.27;97885.84;5093035;28;20211;-77
2023/07/03 10:37:59;;;;;;;5.40;3.73;;;;;;;23.96;43.01;97889.56;5092884;28;20283;-78
2023/07/03 10:40:31;;;;;;;6.80;3.80;;;;;;;23.99;41.92;97893.75;5092201;28;20279;-77
2023/07/03 10:43:02;;;;;;;6.90;3.80;;;;;;;23.88;42.18;97887.00;5092780;28;20294;-79
2023/07/03 10:45:32;;;;;;;5.70;3.50;;;;;;;23.90;42.23;97884.13;5092683;28;20203;-78
2023/07/03 10:48:02;;;;;;;7.20;3.87;;;;;;;23.63;43.54;97898.34;5092416;28;20207;-78
2023/07/03 10:50:35;;;;;;;8.17;4.27;;;;;;;23.64;43.58;97895.47;5092507;28;20203;-78
2023/07/03 10:53:09;;;;;;;6.77;4.00;;;;;;;23.68;44.36;97907.56;5092543;28;20214;-78
2023/07/03 10:55:43;;;;;;;6.13;4.00;;;;;;;23.46;44.03;97902.38;5092607;28;20230;-80
2023/07/03 10:58:16;;;;;;;7.70;3.63;;;;;;;23.53;44.94;97904.09;5092629;28;20309;-78
2023/07/03 11:00:50;;;;;;;6.83;3.90;;;;;;;23.69;44.89;97908.38;5092226;28;20234;-80
2023/07/03 11:03:27;;;;;;;5.93;3.87;;;;;;;23.63;45.06;97904.59;5090725;28;20225;-80
2023/07/03 11:06:01;;;;;;;8.13;3.80;;;;;;;23.82;44.22;97895.84;5089273;28;20234;-79
2023/07/03 11:08:33;;;;;;;5.27;3.20;;;;;;;24.01;43.89;97897.91;5089691;28;20218;-80
2023/07/03 11:11:08;;;;;;;7.50;3.47;;;;;;;24.07;44.62;97907.94;5090222;28;20302;-80
2023/07/03 11:13:48;;;;;;;6.77;3.80;;;;;;;23.90;43.58;97895.75;5092026;28;20202;-79
2023/07/03 11:16:16;;;;;;;8.47;3.80;;;;;;;23.89;44.35;97904.88;5090892;28;20321;-79
2023/07/03 11:18:57;;;;;;;9.47;4.47;;;;;;;24.03;45.11;97911.22;5089156;28;20214;-79
2023/07/03 11:21:34;;;;;;;6.03;3.47;;;;;;;24.04;44.35;97902.09;5089002;28;20206;-80
2023/07/03 11:24:11;;;;;;;8.90;4.17;;;;;;;23.98;44.62;97910.97;5089636;28;20214;-79
2023/07/03 11:26:40;;;;;;;6.03;3.70;;;;;;;24.12;44.67;97918.13;5091826;28;20226;-79
2023/07/03 11:29:08;;;;;;;7.80;4.27;;;;;;;23.89;44.45;97920.25;5090407;28;20219;-78
2023/07/03 11:31:36;;;;;;;7.50;4.03;;;;;;;23.80;45.14;97918.66;5088887;28;20889;-79